^^
Station Historical Data
Daily Summary for March 8, 2018 Units:  Metric    English   Both
« Previous Day
Next Day »
Daily Weekly Monthly Yearly Custom
  High: Low: Average:
Temperature: -17.8 °C 13.1 °C 18.1 °C
Dew Point: -17.8 °C -0.2 °C 6.9 °C
Humidity: Humidity% 18% 54%
Wind Speed: 0km/h 7.9km/h 18.3km/h
Wind Gust: 0km/h - -
Wind- - South
Pressure: 0 hPa 1009.4 hPa -
Precipitation: 0 mm    
Historical Graphs
 
 
Tabular Data for March 8, 2018
Time Temperature Dew Point Pressure Wind Wind Speed Wind Gust Humidity Rainfall Rate (Hourly) solar Conditions
-17.8 °C -17.8 °C 0 hPa Calm     Humidity% 0 mm SolarRadiationWatts/m^2 W/m2 Conditions
04:47 13.9 °C 10.9 °C 1010 hPa South 11.1 km/h 14.5 km/h 82% 0 mm 0.0 W/m2
04:52 13.8 °C 10.8 °C 1010 hPa South 14.3 km/h 16.1 km/h 82% 0 mm 0.0 W/m2
05:02 13.8 °C 10.6 °C 1010 hPa South 7.9 km/h 12.9 km/h 81% 0 mm 0.0 W/m2
05:08 13.7 °C 10.5 °C 1010 hPa South 11.1 km/h 12.9 km/h 81% 0 mm 0.0 W/m2
05:17 13.6 °C 10.4 °C 1010 hPa South 11.1 km/h 11.3 km/h 81% 0 mm 0.0 W/m2
05:22 13.6 °C 10.4 °C 1010.4 hPa South 11.1 km/h 14.5 km/h 81% 0 mm 0.0 W/m2
05:27 13.6 °C 10.4 °C 1010.4 hPa South 9.7 km/h 16.1 km/h 81% 0 mm 0.0 W/m2
05:32 13.5 °C 10.5 °C 1010.4 hPa SSW 11.1 km/h 17.7 km/h 82% 0 mm 0.0 W/m2
05:37 13.5 °C 10.5 °C 1010.7 hPa SSW 13 km/h 17.7 km/h 82% 0 mm 0.0 W/m2
05:42 13.4 °C 10.4 °C 1010.4 hPa SSW 14.3 km/h 19.3 km/h 82% 0 mm 0.0 W/m2
05:47 13.4 °C 10.2 °C 1010.4 hPa SSW 24.1 km/h 24.1 km/h 81% 0 mm 0.0 W/m2
05:52 13.4 °C 10.2 °C 1010.4 hPa SSW 20.9 km/h 20.9 km/h 81% 0 mm 0.0 W/m2
05:57 13.3 °C 10.1 °C 1010.4 hPa SSW 14.3 km/h 19.3 km/h 81% 0 mm 0.0 W/m2
06:03 13.3 °C 10.1 °C 1010.4 hPa South 14.3 km/h 19.3 km/h 81% 0 mm 0.0 W/m2
06:08 13.3 °C 10.1 °C 1010.4 hPa SSW 19.5 km/h 20.9 km/h 81% 0 mm 0.0 W/m2
06:14 13.2 °C 10 °C 1010.4 hPa SSW 13 km/h 22.5 km/h 81% 0 mm 0.0 W/m2
06:20 13.2 °C 10 °C 1010.4 hPa SSW 13 km/h 19.3 km/h 81% 0 mm 0.0 W/m2
06:25 13.2 °C 10 °C 1010.4 hPa SSW 17.7 km/h 19.3 km/h 81% 0 mm 0.0 W/m2
06:38 13.1 °C 10.1 °C 1010.7 hPa South 20.9 km/h 20.9 km/h 82% 0 mm 0.0 W/m2
06:51 13.1 °C 9.9 °C 1010.7 hPa South 19.5 km/h 24.1 km/h 81% 0 mm 5.0 W/m2
07:00 13.1 °C 9.9 °C 1011.1 hPa SSW 22.7 km/h 27.4 km/h 81% 0 mm 12.0 W/m2
07:08 13.2 °C 10 °C 1011.1 hPa South 25.9 km/h 27.4 km/h 81% 0 mm 23.0 W/m2
07:14 13.3 °C 10.1 °C 1011.1 hPa South 28.8 km/h 30.6 km/h 81% 0 mm 39.0 W/m2
07:24 13.4 °C 10 °C 1011.4 hPa South 19.5 km/h 24.1 km/h 80% 0 mm 84.0 W/m2
07:29 13.6 °C 10 °C 1011.4 hPa South 22.7 km/h 29 km/h 79% 0 mm 91.0 W/m2
07:34 13.6 °C 10 °C 1011.4 hPa SSW 24.1 km/h 27.4 km/h 79% 0 mm 113.0 W/m2
07:40 13.7 °C 9.9 °C 1011.4 hPa South 27.4 km/h 29 km/h 78% 0 mm 130.0 W/m2
07:47 13.7 °C 9.9 °C 1011.4 hPa SSW 22.7 km/h 27.4 km/h 78% 0 mm 151.0 W/m2
07:58 13.9 °C 9.9 °C 1011.7 hPa SSW 17.7 km/h 25.7 km/h 77% 0 mm 193.0 W/m2
08:12 14.2 °C 10.2 °C 1011.7 hPa SSW 25.9 km/h 25.9 km/h 77% 0 mm 260.0 W/m2
08:23 14.3 °C 10.1 °C 1011.7 hPa SSW 27.4 km/h 29 km/h 76% 0 mm 302.0 W/m2
08:37 14.8 °C 10 °C 1011.7 hPa South 19.5 km/h 24.1 km/h 73% 0 mm 357.0 W/m2
08:49 14.9 °C 9.7 °C 1011.7 hPa SSW 22.7 km/h 32.2 km/h 71% 0 mm 394.0 W/m2
09:04 15.1 °C 9.7 °C 1011.7 hPa SSW 27.4 km/h 27.4 km/h 70% 0 mm 445.0 W/m2
09:19 15.7 °C 9.1 °C 1012.1 hPa South 24.1 km/h 27.4 km/h 65% 0 mm 499.0 W/m2
09:35 16.1 °C 9.3 °C 1011.7 hPa South 20.9 km/h 27.4 km/h 64% 0 mm 550.0 W/m2
10:05 17.1 °C 9 °C 1012.1 hPa South 22.7 km/h 25.7 km/h 59% 0 mm 643.0 W/m2
10:34 18.4 °C 8.6 °C 1011.7 hPa SSE 17.7 km/h 22.5 km/h 53% 0 mm 726.0 W/m2
11:06 19.7 °C 8.7 °C 1011.7 hPa SSW 17.7 km/h 25.7 km/h 49% 0 mm 800.0 W/m2
11:22 20.1 °C 8.1 °C 1011.7 hPa SSW 20.9 km/h 25.7 km/h 46% 0 mm 828.0 W/m2
12:19 22.6 °C 6.4 °C 1011.4 hPa SSW 22.7 km/h 32.2 km/h 35% 0 mm 916.0 W/m2
12:44 23.4 °C 4.8 °C 1011.4 hPa SSW 25.9 km/h 25.9 km/h 30% 0 mm 926.0 W/m2
14:24 25.3 °C 0.7 °C 1010.4 hPa South 19.5 km/h 27.4 km/h 20% 0 mm 863.0 W/m2
14:40 25.6 °C 0.3 °C 1010 hPa SSE 20.9 km/h 32.2 km/h 19% 0 mm 851.0 W/m2
15:50 26.3 °C 1.5 °C 1009.7 hPa SSW 19.5 km/h 30.6 km/h 20% 0 mm 689.0 W/m2
16:05 26.6 °C 1.1 °C 1009.7 hPa South 25.9 km/h 32.2 km/h 19% 0 mm 647.0 W/m2
16:19 26.4 °C 1.6 °C 1009.4 hPa SW 22.7 km/h 27.4 km/h 20% 0 mm 601.0 W/m2
16:39 26.3 °C 0.8 °C 1009.4 hPa South 25.9 km/h 37 km/h 19% 0 mm 534.0 W/m2
16:49 26.3 °C 1.5 °C 1009.4 hPa South 13 km/h 27.4 km/h 20% 0 mm 501.0 W/m2
16:59 26.3 °C 1.5 °C 1009.4 hPa SSW 14.3 km/h 22.5 km/h 20% 0 mm 466.0 W/m2
17:08 26.2 °C 0.8 °C 1009.4 hPa SSW 25.9 km/h 32.2 km/h 19% 0 mm 432.0 W/m2
17:16 26.3 °C 1.5 °C 1009.4 hPa SSE 28.8 km/h 30.6 km/h 20% 0 mm 394.0 W/m2
17:26 26.2 °C 0.8 °C 1009.4 hPa South 22.7 km/h 29 km/h 19% 0 mm 357.0 W/m2
17:31 26 °C -0.2 °C 1009.4 hPa SSE 22.7 km/h 30.6 km/h 18% 0 mm 341.0 W/m2
17:36 26.1 °C 1.4 °C 1009.4 hPa South 22.7 km/h 27.4 km/h 20% 0 mm 318.0 W/m2
17:41 26.1 °C 1.4 °C 1009.4 hPa South 20.9 km/h 27.4 km/h 20% 0 mm 306.0 W/m2
17:51 25.8 °C 1.1 °C 1009.4 hPa SSE 19.5 km/h 25.7 km/h 20% 0 mm 264.0 W/m2
17:56 25.8 °C 1.8 °C 1009.4 hPa South 24.1 km/h 24.1 km/h 21% 0 mm 243.0 W/m2
18:02 25.8 °C 0.4 °C 1009.4 hPa South 27.4 km/h 32.2 km/h 19% 0 mm 220.0 W/m2
18:08 25.6 °C 1 °C 1009.4 hPa SSE 22.7 km/h 30.6 km/h 20% 0 mm 195.0 W/m2
19:42 23.6 °C 0.6 °C 1010 hPa South 22.7 km/h 25.7 km/h 22% 0 mm 0.0 W/m2
20:27 22.7 °C 1.7 °C 1010.4 hPa SSE 14.3 km/h 22.5 km/h 25% 0 mm 0.0 W/m2
20:56 22 °C 3.6 °C 1010.4 hPa SSE 14.3 km/h 19.3 km/h 30% 0 mm 0.0 W/m2
21:12 21.7 °C 5.2 °C 1010.7 hPa SSE 16.3 km/h 22.5 km/h 34% 0 mm 0.0 W/m2
21:27 21.3 °C 5.6 °C 1010.7 hPa South 14.3 km/h 14.5 km/h 36% 0 mm 0.0 W/m2
21:38 20.8 °C 7.1 °C 1011.1 hPa South 9.7 km/h 16.1 km/h 41% 0 mm 0.0 W/m2
21:46 20.3 °C 7.6 °C 1010.7 hPa South 9.7 km/h 16.1 km/h 44% 0 mm 0.0 W/m2
21:52 20.1 °C 7.8 °C 1010.7 hPa South 13 km/h 17.7 km/h 45% 0 mm 0.0 W/m2
21:58 19.9 °C 7.9 °C 1011.1 hPa South 9.7 km/h 17.7 km/h 46% 0 mm 0.0 W/m2
22:08 19.6 °C 8 °C 1011.1 hPa South 16.3 km/h 17.7 km/h 47% 0 mm 0.0 W/m2
22:17 19.4 °C 8.1 °C 1011.1 hPa South 13 km/h 17.7 km/h 48% 0 mm 0.0 W/m2
22:22 19.3 °C 8 °C 1011.1 hPa SSW 17.7 km/h 17.7 km/h 48% 0 mm 0.0 W/m2
22:28 19.2 °C 8.2 °C 1011.1 hPa SSW 20.9 km/h 22.5 km/h 49% 0 mm 0.0 W/m2
22:37 19 °C 8.3 °C 1011.1 hPa South 17.7 km/h 22.5 km/h 50% 0 mm 0.0 W/m2
22:42 18.8 °C 8.2 °C 1011.1 hPa SSW 17.7 km/h 20.9 km/h 50% 0 mm 0.0 W/m2
22:47 18.8 °C 8.4 °C 1011.1 hPa SSW 20.9 km/h 27.4 km/h 51% 0 mm 0.0 W/m2
22:52 18.7 °C 8.4 °C 1011.1 hPa South 20.9 km/h 24.1 km/h 51% 0 mm 0.0 W/m2
22:57 18.7 °C 8.4 °C 1011.1 hPa South 17.7 km/h 24.1 km/h 51% 0 mm 0.0 W/m2
23:02 18.6 °C 8.3 °C 1011.1 hPa South 11.1 km/h 20.9 km/h 51% 0 mm 0.0 W/m2
23:07 18.4 °C 8.4 °C 1011.1 hPa South 17.7 km/h 20.9 km/h 52% 0 mm 0.0 W/m2
23:17 18.2 °C 8.2 °C 1011.1 hPa South 11.1 km/h 14.5 km/h 52% 0 mm 0.0 W/m2
23:22 18.1 °C 8.4 °C 1011.1 hPa SSW 14.3 km/h 17.7 km/h 53% 0 mm 0.0 W/m2
23:32 18.1 °C 8.6 °C 1011.1 hPa South 14.3 km/h 20.9 km/h 54% 0 mm 0.0 W/m2
23:37 18 °C 8.6 °C 1011.1 hPa South 11.1 km/h 20.9 km/h 54% 0 mm 0.0 W/m2
23:42 17.9 °C 8.5 °C 1011.1 hPa South 20.9 km/h 22.5 km/h 54% 0 mm 0.0 W/m2
23:52 17.8 °C 8.4 °C 1011.4 hPa SSE 14.3 km/h 20.9 km/h 54% 0 mm 0.0 W/m2
23:57 17.7 °C 8.3 °C 1011.4 hPa SSE 11.1 km/h 20.9 km/h 54% 0 mm 0.0 W/m2
Canyon Roadhouse, Fishriver Canyon, Namibia
Compliments of Weather Underground - 2 mb